Camellia — VRCP9 — position and weather

sailwx.info

Track history (hours):
 
Tides and Currents Weather Stations Pressure Air Temp Water Temp Dewpoint Dewpoint Depression Visibility Wind Speed Wind Dir Waves Ship Positions

Camellia

Last reported at 2015-May-07 02:34 UTC. Time now 2015-May-07 02:35 UTC.
Position N 51°53' E 004°26'.

Length 222 m; draft 12.3 m.

Type: Ship (hazmat cat C). MMSI: 477791900.

Date/timePositionNaut miles runAvg speedWind from/ knotsBaromVisibWave heightAir tempDewpointWater temp
2015-May-07 02:34N 51°53' E 004°26'0 0.0
2015-May-07 01:28N 51°53' E 004°26'0 0.0
2015-May-07 00:31N 51°53' E 004°26'0 0.0
2015-May-06 23:34N 51°53' E 004°26'0 0.0
2015-May-06 22:33N 51°53' E 004°26'0 0.0
2015-May-06 21:33N 51°53' E 004°26'0 0.0
2015-May-06 20:33N 51°53' E 004°26'0 0.0
2015-May-06 19:33N 51°53' E 004°26'0 0.0
2015-May-06 18:33N 51°53' E 004°26'0 0.0
2015-May-06 17:33N 51°53' E 004°26'0 0.0
2015-May-06 16:33N 51°53' E 004°26'0 0.0
2015-May-06 15:33N 51°53' E 004°26'0 0.0
2015-May-06 14:33N 51°53' E 004°26'0 0.0
2015-May-06 13:33N 51°53' E 004°26'0 0.0
2015-May-06 12:33N 51°53' E 004°26'0 0.5
2015-May-06 11:33N 51°54' E 004°26'2 1.7
2015-May-06 10:33N 51°54' E 004°24'7 7.2
2015-May-06 09:33N 51°56' E 004°13'10 9.8
2015-May-06 08:33N 51°60' E 003°58'1312.4
2015-May-06 07:32N 52°04' E 003°38'6114.7
2015-May-06 03:21N 53°02' E 004°10'3318.5
2015-May-06 01:33N 53°30' E 004°42'2019.8
2015-May-06 00:33N 53°36' E 005°13'2019.5
2015-May-05 23:33N 53°43' E 005°44'2018.8
2015-May-05 22:29N 53°49' E 006°16'2218.5
2015-May-05 21:17N 53°55' E 006°53'1318.3
2015-May-05 20:33N 53°58' E 007°15'1818.2
2015-May-05 19:34N 54°02' E 007°45'1717.3
2015-May-05 18:33N 54°00' E 008°14'1716.6
2015-May-05 17:33N 53°55' E 008°41'1414.3
2015-May-05 16:33N 53°52' E 009°05'1211.9
2015-May-05 15:33N 53°48' E 009°23'1111.2
2015-May-05 14:33N 53°38' E 009°32'9 9.3
2015-May-05 13:33N 53°34' E 009°46'5 5.2
2015-May-05 12:33N 53°32' E 009°55'0 0.0
2015-May-05 11:33N 53°32' E 009°55'0 0.0
2015-May-05 10:33N 53°32' E 009°55'0 0.0
2015-May-05 09:34N 53°32' E 009°55'0 0.0
2015-May-05 08:33N 53°32' E 009°55'0 0.0
2015-May-05 07:33N 53°32' E 009°55'0 0.0
2015-May-05 06:33N 53°32' E 009°55'0 0.0
2015-May-05 05:33N 53°32' E 009°55'0 0.0
2015-May-05 04:34N 53°32' E 009°55'0 0.0
2015-May-05 03:29N 53°32' E 009°55'0 0.0
2015-May-05 02:33N 53°32' E 009°55'0 0.0
2015-May-05 01:33N 53°32' E 009°55'0 0.0
2015-May-05 00:34N 53°32' E 009°55'0 0.0
2015-May-04 23:33N 53°32' E 009°55'0 0.0
2015-May-04 22:34N 53°32' E 009°55'0 0.0
2015-May-04 21:33N 53°32' E 009°55'1 0.6
2015-May-04 20:34N 53°32' E 009°54'4 3.7
2015-May-04 19:34N 53°33' E 009°48'8 7.7
2015-May-04 18:33N 53°36' E 009°35'1110.5
2015-May-04 17:33N 53°45' E 009°25'1111.3
2015-May-04 16:33N 53°53' E 009°12'9 8.5
2015-May-04 15:34N 53°51' E 008°58'9 9.4
2015-May-04 14:33N 53°53' E 008°42'1312.7
2015-May-04 13:34N 53°59' E 008°23'1110.8
2015-May-04 12:33N 54°01' E 008°05'3 3.0
2015-May-04 11:33N 54°02' E 008°09'0 0.0
2015-May-04 10:17N 54°02' E 008°09'0 0.0
2015-May-04 09:32N 54°02' E 008°09'0 0.0
2015-May-04 08:32N 54°02' E 008°09'0 0.0
2015-May-04 07:32N 54°02' E 008°09'0 0.1
2015-May-04 06:32N 54°02' E 008°09'0 0.2
2015-May-04 05:32N 54°02' E 008°09'0 0.0
2015-May-04 04:32N 54°02' E 008°09'1 1.4
2015-May-04 03:33N 54°01' E 008°07'1110.8
2015-May-04 02:33N 53°58' E 007°50'8 7.6
2015-May-04 01:33N 53°56' E 007°37'6 6.2
2015-May-04 00:33N 53°55' E 007°27'7 7.2
2015-May-03 23:32N 53°53' E 007°15'15 7.1
2015-May-03 21:27N 53°49' E 006°50'7 8.2
2015-May-03 20:33N 53°47' E 006°38'9 8.6
2015-May-03 19:32N 53°45' E 006°24'8 8.4
2015-May-03 18:33N 53°43' E 006°11'8 7.8
2015-May-03 17:33N 53°40' E 005°58'9 9.5
2015-May-03 16:33N 53°37' E 005°43'1010.1
2015-May-03 15:33N 53°34' E 005°27'10 9.8
2015-May-03 14:33N 53°31' E 005°11'10 9.9
2015-May-03 13:34N 53°28' E 004°56'7 7.3
2015-May-03 12:33N 53°25' E 004°44'9 8.8
2015-May-03 11:33N 53°17' E 004°37'9 9.0
2015-May-03 10:33N 53°09' E 004°29'9 9.2
2015-May-03 09:33N 53°01' E 004°22'9 8.5
2015-May-03 08:33N 52°53' E 004°17'1211.5
2015-May-03 07:33N 52°44' E 004°05'1211.9
2015-May-03 06:33N 52°38' E 003°48'1111.2
2015-May-03 05:33N 52°29' E 003°37'1211.8
2015-May-03 04:33N 52°18' E 003°30'1211.9
2015-May-03 03:33N 52°07' E 003°25'1212.2
2015-May-03 02:33N 51°55' E 003°22'1211.9
2015-May-03 01:33N 51°43' E 003°15'1615.7
2015-May-03 00:33N 51°30' E 003°03'1111.5
2015-May-02 23:33N 51°24' E 003°19'1312.8
2015-May-02 22:33N 51°27' E 003°40'1110.7
2015-May-02 21:33N 51°22' E 003°55'8 8.5
2015-May-02 20:33N 51°23' E 004°09'7 6.7
2015-May-02 19:33N 51°17' E 004°16'0 0.0
2015-May-02 18:32N 51°17' E 004°16'0 0.0
2015-May-02 17:32N 51°17' E 004°16'0 0.0
2015-May-02 16:29N 51°17' E 004°16'0 0.0
2015-May-02 15:32N 51°17' E 004°16'0 0.0
2015-May-02 14:32N 51°17' E 004°16'0 0.0
2015-May-02 13:29N 51°17' E 004°16'0 0.0
2015-May-02 12:32N 51°17' E 004°16'0 0.0
2015-May-02 11:26N 51°17' E 004°16'0 0.0
2015-May-02 10:32N 51°17' E 004°16'0 0.0
2015-May-02 09:32N 51°17' E 004°16'0 0.0
2015-May-02 08:32N 51°17' E 004°16'0 0.0
2015-May-02 07:32N 51°17' E 004°16'0 0.0
2015-May-02 06:32N 51°17' E 004°16'0 0.0
2015-May-02 05:32N 51°17' E 004°16'0 0.0
2015-May-02 04:32N 51°17' E 004°16'0 0.0
2015-May-02 03:32N 51°17' E 004°16'0 0.0
2015-May-02 02:31N 51°17' E 004°16'0 0.0
2015-May-02 01:31N 51°17' E 004°16'0 0.0
2015-May-02 00:33N 51°17' E 004°16'7 7.0
2015-May-01 23:33N 51°24' E 004°11'1110.7
2015-May-01 22:33N 51°22' E 003°55'1312.5
2015-May-01 21:33N 51°25' E 003°35'1515.2
2015-May-01 20:34N 51°24' E 003°11'1616.1
2015-May-01 19:33N 51°22' E 002°46'1010.3
2015-May-01 18:33N 51°22' E 002°29'1010.4
2015-May-01 17:34N 51°17' E 002°14'1615.5
2015-May-01 16:33N 51°10' E 001°52'1717.2
2015-May-01 15:33N 50°58' E 001°32'85017.7
2015-Apr-29 15:33N 39°17' W 009°50'2020.0
2015-Apr-29 14:34N 38°58' W 009°51'2020.1
2015-Apr-29 13:33N 38°37' W 009°50'2020.0
2015-Apr-29 12:33N 38°18' W 009°44'2019.8
2015-Apr-29 11:33N 37°58' W 009°38'2020.0
2015-Apr-29 10:33N 37°39' W 009°33'6019.9
2015-Apr-29 07:33N 36°44' W 009°05'  
Track history (hours):
 
Tides and Currents Weather Stations Pressure Air Temp Water Temp Dewpoint Dewpoint Depression Visibility Wind Speed Wind Dir Waves Ship Positions

Camellia

Last reported at 2015-May-07 02:34 UTC. Time now 2015-May-07 02:35 UTC.
Position N 51°53' E 004°26'.

Length 222 m; draft 12.3 m.

Type: Ship (hazmat cat C). MMSI: 477791900.

Date/timePositionNaut miles runAvg speedWind from/ knotsBaromVisibWave heightAir tempDewpointWater temp
2015-May-07 02:34N 51°53' E 004°26'0 0.0
2015-May-07 01:28N 51°53' E 004°26'0 0.0
2015-May-07 00:31N 51°53' E 004°26'0 0.0
2015-May-06 23:34N 51°53' E 004°26'0 0.0
2015-May-06 22:33N 51°53' E 004°26'0 0.0
2015-May-06 21:33N 51°53' E 004°26'0 0.0
2015-May-06 20:33N 51°53' E 004°26'0 0.0
2015-May-06 19:33N 51°53' E 004°26'0 0.0
2015-May-06 18:33N 51°53' E 004°26'0 0.0
2015-May-06 17:33N 51°53' E 004°26'0 0.0
2015-May-06 16:33N 51°53' E 004°26'0 0.0
2015-May-06 15:33N 51°53' E 004°26'0 0.0
2015-May-06 14:33N 51°53' E 004°26'0 0.0
2015-May-06 13:33N 51°53' E 004°26'0 0.0
2015-May-06 12:33N 51°53' E 004°26'0 0.5
2015-May-06 11:33N 51°54' E 004°26'2 1.7
2015-May-06 10:33N 51°54' E 004°24'7 7.2
2015-May-06 09:33N 51°56' E 004°13'10 9.8
2015-May-06 08:33N 51°60' E 003°58'1312.4
2015-May-06 07:32N 52°04' E 003°38'6114.7
2015-May-06 03:21N 53°02' E 004°10'3318.5
2015-May-06 01:33N 53°30' E 004°42'2019.8
2015-May-06 00:33N 53°36' E 005°13'2019.5
2015-May-05 23:33N 53°43' E 005°44'2018.8
2015-May-05 22:29N 53°49' E 006°16'2218.5
2015-May-05 21:17N 53°55' E 006°53'1318.3
2015-May-05 20:33N 53°58' E 007°15'1818.2
2015-May-05 19:34N 54°02' E 007°45'1717.3
2015-May-05 18:33N 54°00' E 008°14'1716.6
2015-May-05 17:33N 53°55' E 008°41'1414.3
2015-May-05 16:33N 53°52' E 009°05'1211.9
2015-May-05 15:33N 53°48' E 009°23'1111.2
2015-May-05 14:33N 53°38' E 009°32'9 9.3
2015-May-05 13:33N 53°34' E 009°46'5 5.2
2015-May-05 12:33N 53°32' E 009°55'0 0.0
2015-May-05 11:33N 53°32' E 009°55'0 0.0
2015-May-05 10:33N 53°32' E 009°55'0 0.0
2015-May-05 09:34N 53°32' E 009°55'0 0.0
2015-May-05 08:33N 53°32' E 009°55'0 0.0
2015-May-05 07:33N 53°32' E 009°55'0 0.0
2015-May-05 06:33N 53°32' E 009°55'0 0.0
2015-May-05 05:33N 53°32' E 009°55'0 0.0
2015-May-05 04:34N 53°32' E 009°55'0 0.0
2015-May-05 03:29N 53°32' E 009°55'0 0.0
2015-May-05 02:33N 53°32' E 009°55'0 0.0
2015-May-05 01:33N 53°32' E 009°55'0 0.0
2015-May-05 00:34N 53°32' E 009°55'0 0.0
2015-May-04 23:33N 53°32' E 009°55'0 0.0
2015-May-04 22:34N 53°32' E 009°55'0 0.0
2015-May-04 21:33N 53°32' E 009°55'1 0.6
2015-May-04 20:34N 53°32' E 009°54'4 3.7
2015-May-04 19:34N 53°33' E 009°48'8 7.7
2015-May-04 18:33N 53°36' E 009°35'1110.5
2015-May-04 17:33N 53°45' E 009°25'1111.3
2015-May-04 16:33N 53°53' E 009°12'9 8.5
2015-May-04 15:34N 53°51' E 008°58'9 9.4
2015-May-04 14:33N 53°53' E 008°42'1312.7
2015-May-04 13:34N 53°59' E 008°23'1110.8
2015-May-04 12:33N 54°01' E 008°05'3 3.0
2015-May-04 11:33N 54°02' E 008°09'0 0.0
2015-May-04 10:17N 54°02' E 008°09'0 0.0
2015-May-04 09:32N 54°02' E 008°09'0 0.0
2015-May-04 08:32N 54°02' E 008°09'0 0.0
2015-May-04 07:32N 54°02' E 008°09'0 0.1
2015-May-04 06:32N 54°02' E 008°09'0 0.2
2015-May-04 05:32N 54°02' E 008°09'0 0.0
2015-May-04 04:32N 54°02' E 008°09'1 1.4
2015-May-04 03:33N 54°01' E 008°07'1110.8
2015-May-04 02:33N 53°58' E 007°50'8 7.6
2015-May-04 01:33N 53°56' E 007°37'6 6.2
2015-May-04 00:33N 53°55' E 007°27'7 7.2
2015-May-03 23:32N 53°53' E 007°15'15 7.1
2015-May-03 21:27N 53°49' E 006°50'7 8.2
2015-May-03 20:33N 53°47' E 006°38'9 8.6
2015-May-03 19:32N 53°45' E 006°24'8 8.4
2015-May-03 18:33N 53°43' E 006°11'8 7.8
2015-May-03 17:33N 53°40' E 005°58'9 9.5
2015-May-03 16:33N 53°37' E 005°43'1010.1
2015-May-03 15:33N 53°34' E 005°27'10 9.8
2015-May-03 14:33N 53°31' E 005°11'10 9.9
2015-May-03 13:34N 53°28' E 004°56'7 7.3
2015-May-03 12:33N 53°25' E 004°44'9 8.8
2015-May-03 11:33N 53°17' E 004°37'9 9.0
2015-May-03 10:33N 53°09' E 004°29'9 9.2
2015-May-03 09:33N 53°01' E 004°22'9 8.5
2015-May-03 08:33N 52°53' E 004°17'1211.5
2015-May-03 07:33N 52°44' E 004°05'1211.9
2015-May-03 06:33N 52°38' E 003°48'1111.2
2015-May-03 05:33N 52°29' E 003°37'1211.8
2015-May-03 04:33N 52°18' E 003°30'1211.9
2015-May-03 03:33N 52°07' E 003°25'1212.2
2015-May-03 02:33N 51°55' E 003°22'1211.9
2015-May-03 01:33N 51°43' E 003°15'1615.7
2015-May-03 00:33N 51°30' E 003°03'1111.5
2015-May-02 23:33N 51°24' E 003°19'1312.8
2015-May-02 22:33N 51°27' E 003°40'1110.7
2015-May-02 21:33N 51°22' E 003°55'8 8.5
2015-May-02 20:33N 51°23' E 004°09'7 6.7
2015-May-02 19:33N 51°17' E 004°16'0 0.0
2015-May-02 18:32N 51°17' E 004°16'0 0.0
2015-May-02 17:32N 51°17' E 004°16'0 0.0
2015-May-02 16:29N 51°17' E 004°16'0 0.0
2015-May-02 15:32N 51°17' E 004°16'0 0.0
2015-May-02 14:32N 51°17' E 004°16'0 0.0
2015-May-02 13:29N 51°17' E 004°16'0 0.0
2015-May-02 12:32N 51°17' E 004°16'0 0.0
2015-May-02 11:26N 51°17' E 004°16'0 0.0
2015-May-02 10:32N 51°17' E 004°16'0 0.0
2015-May-02 09:32N 51°17' E 004°16'0 0.0
2015-May-02 08:32N 51°17' E 004°16'0 0.0
2015-May-02 07:32N 51°17' E 004°16'0 0.0
2015-May-02 06:32N 51°17' E 004°16'0 0.0
2015-May-02 05:32N 51°17' E 004°16'0 0.0
2015-May-02 04:32N 51°17' E 004°16'0 0.0
2015-May-02 03:32N 51°17' E 004°16'0 0.0
2015-May-02 02:31N 51°17' E 004°16'0 0.0
2015-May-02 01:31N 51°17' E 004°16'0 0.0
2015-May-02 00:33N 51°17' E 004°16'7 7.0
2015-May-01 23:33N 51°24' E 004°11'1110.7
2015-May-01 22:33N 51°22' E 003°55'1312.5
2015-May-01 21:33N 51°25' E 003°35'1515.2
2015-May-01 20:34N 51°24' E 003°11'1616.1
2015-May-01 19:33N 51°22' E 002°46'1010.3
2015-May-01 18:33N 51°22' E 002°29'1010.4
2015-May-01 17:34N 51°17' E 002°14'1615.5
2015-May-01 16:33N 51°10' E 001°52'1717.2
2015-May-01 15:33N 50°58' E 001°32'85017.7
2015-Apr-29 15:33N 39°17' W 009°50'2020.0
2015-Apr-29 14:34N 38°58' W 009°51'2020.1
2015-Apr-29 13:33N 38°37' W 009°50'2020.0
2015-Apr-29 12:33N 38°18' W 009°44'2019.8
2015-Apr-29 11:33N 37°58' W 009°38'2020.0
2015-Apr-29 10:33N 37°39' W 009°33'6019.9
2015-Apr-29 07:33N 36°44' W 009°05'  

Dump ship's entire track history